Latest Weather Observations for Laverton

IDV60901

Issued at 9:41 pm EDT Saturday 25 January 2020 (issued every 10 minutes, with the page automatically refreshed every 10 minutes)

About weather observations | Map of Melbourne area stations | Latest observations for Melbourne area | Other Formats
Station Details ID: 087031 Name: LAVERTON RAAF Lat: -37.86 Lon: 144.76 Height: 20.1 m
Data from the previous 72 hours. | See also: Recent months at Laverton
Date/Time
EDT
Temp
°C
App
Temp
°C
Dew
Point
°C
Rel
Hum
%
Delta-T
°C
Wind Press
QNH
hPa
Press
MSL
hPa
Rain since
9am
mm
Dir  Spd
km/h
Gust
km/h
Spd
kts
Gust
kts
25/09:30pm 19.5 18.4 14.3 72 3.0 SSE 13 19 7 10 1013.7 1013.6 0.0
25/09:00pm 19.8 19.2 14.6 72 3.0 SSE 11 19 6 10 1013.3 1013.2 0.0
25/08:30pm 20.2 19.1 15.2 73 2.9 SSE 15 24 8 13 1013.1 1013.0 0.0
25/08:00pm 20.5 18.6 15.3 72 3.1 SSE 19 30 10 16 1012.6 1012.5 0.0
25/07:30pm 20.8 17.8 14.9 69 3.5 SSE 24 32 13 17 1012.3 1012.2 0.0
25/07:00pm 21.8 18.9 15.2 66 3.9 SSE 24 35 13 19 1012.0 1011.9 0.0
25/06:30pm 22.2 20.1 14.6 62 4.5 SSE 19 28 10 15 1011.7 1011.6 0.0
25/06:00pm 22.8 19.6 15.4 63 4.4 SSE 26 35 14 19 1011.5 1011.5 0.0
25/05:30pm 25.6 23.0 13.1 46 7.3 SE 19 33 10 18 1011.4 1011.4 0.0
25/05:00pm 25.9 23.6 13.1 45 7.5 SE 17 20 9 11 1011.8 1011.7 0.0
25/04:30pm 25.3 22.6 12.9 46 7.2 SE 19 24 10 13 1011.9 1011.8 0.0
25/04:00pm 25.9 23.8 12.4 43 7.8 SE 15 22 8 12 1012.2 1012.1 0.0
25/03:30pm 25.1 22.7 12.7 46 7.2 ESE 17 24 9 13 1012.4 1012.3 0.0
25/03:00pm 25.1 22.9 12.0 44 7.5 SSE 15 24 8 13 1012.8 1012.7 0.0
25/02:30pm 24.5 22.1 12.5 47 6.9 ESE 17 22 9 12 1013.2 1013.1 0.0
25/02:00pm 24.4 21.9 12.4 47 6.9 SE 17 24 9 13 1013.4 1013.3 0.0
25/01:30pm 24.2 22.2 14.0 53 6.0 SE 17 22 9 12 1013.5 1013.4 0.0
25/01:00pm 23.6 21.2 12.6 50 6.3 SSE 17 24 9 13 1013.7 1013.6 0.0
25/12:30pm 22.8 20.6 13.3 55 5.5 SE 17 22 9 12 1013.8 1013.7 0.0
25/12:00pm 23.0 21.2 13.2 54 5.7 ESE 15 22 8 12 1013.8 1013.7 0.0
25/11:30am 22.5 20.6 13.0 55 5.5 SE 15 20 8 11 1014.1 1014.0 0.0
25/11:00am 21.6 19.6 12.7 57 5.1 S 15 24 8 13 1014.3 1014.2 0.0
25/10:30am 22.4 21.4 12.4 53 5.7 S 9 17 5 9 1014.4 1014.3 0.0
25/10:00am 21.8 21.6 11.8 53 5.6 NW 4 11 2 6 1014.7 1014.6 0.0
25/09:30am 20.6 19.8 11.8 57 4.9 WNW 7 11 4 6 1015.0 1014.9 0.0
25/09:00am 19.6 18.9 11.9 61 4.3 NW 7 13 4 7 1015.1 1015.0 0.0
25/08:30am 18.5 16.9 11.6 64 3.8 NNW 11 13 6 7 1014.7 1014.6 0.0
25/08:00am 16.9 15.7 11.6 71 2.9 NNW 9 13 5 7 1014.5 1014.4 0.0
25/07:30am 14.8 13.0 10.8 77 2.1 NNW 11 13 6 7 1014.2 1014.1 0.0
25/07:00am 12.4 11.3 10.6 89 0.9 NW 7 9 4 5 1014.1 1014.0 0.0
25/06:30am 12.7 10.7 10.2 85 1.3 NNW 11 11 6 6 1014.0 1013.9 0.0
25/06:00am 12.4 10.8 10.3 87 1.1 NNW 9 11 5 6 1013.8 1013.7 0.0
25/05:30am 12.8 12.0 10.9 88 1.0 NNW 6 9 3 5 1013.7 1013.6 0.0
25/05:00am 13.0 11.6 10.9 87 1.1 NNW 9 11 5 6 1013.6 1013.5 0.0
25/04:30am 13.4 12.0 10.9 85 1.3 NNW 9 11 5 6 1013.8 1013.7 0.0
25/04:00am 14.0 13.1 11.5 85 1.3 NNW 7 9 4 5 1013.9 1013.8 0.0
25/03:30am 14.2 13.0 11.5 84 1.4 N 9 11 5 6 1013.8 1013.7 0.0
25/03:00am 14.6 13.9 11.4 81 1.7 W 6 7 3 4 1013.7 1013.6 0.0
25/02:30am 14.7 13.3 10.9 78 2.0 WNW 9 11 5 6 1013.7 1013.6 0.0
25/02:00am 15.1 13.1 10.1 72 2.6 WNW 11 13 6 7 1013.7 1013.6 0.0
25/01:30am 16.0 14.0 10.1 68 3.1 WNW 11 13 6 7 1013.6 1013.5 0.0
25/01:00am 17.1 14.7 10.0 63 3.7 WNW 13 19 7 10 1013.6 1013.5 0.0
25/12:30am 16.8 15.3 10.4 66 3.4 NNW 9 11 5 6 1013.4 1013.3 0.0
25/12:00am 17.3 15.6 9.7 61 4.0 NNW 9 13 5 7 1013.3 1013.2 0.0
 
Date/Time
EDT
Temp
°C
App
Temp
°C
Dew
Point
°C
Rel
Hum
%
Delta-T
°C
Wind Press
QNH
hPa
Press
MSL
hPa
Rain since
9am
mm
Dir  Spd
km/h
Gust
km/h
Spd
kts
Gust
kts
24/11:30pm 17.3 15.4 9.2 59 4.2 NNW 9 13 5 7 1013.3 1013.2 0.0
24/11:00pm 17.4 15.2 9.3 59 4.2 NW 11 11 6 6 1013.4 1013.3 0.0
24/10:30pm 18.4 16.9 9.2 55 4.8 WNW 7 9 4 5 1013.3 1013.2 0.0
24/10:00pm 19.2 17.3 9.1 52 5.3 WNW 9 15 5 8 1013.2 1013.1 0.0
24/09:30pm 19.8 17.9 9.1 50 5.6 WNW 9 13 5 7 1012.8 1012.7 0.0
24/09:00pm 21.3 18.9 8.6 44 6.7 WSW 11 19 6 10 1012.6 1012.5 0.0
24/08:30pm 21.8 18.6 8.3 42 7.1 WSW 15 24 8 13 1012.5 1012.4 0.0
24/08:00pm 22.2 18.6 8.3 41 7.3 WSW 17 22 9 12 1012.3 1012.2 0.0
24/07:30pm 22.2 18.9 8.0 40 7.4 WNW 15 24 8 13 1011.9 1011.8 0.0
24/07:00pm 22.2 18.7 8.7 42 7.2 WNW 17 30 9 16 1011.5 1011.5 0.0
24/06:30pm 22.6 18.6 8.3 40 7.6 WNW 19 26 10 14 1011.5 1011.5 0.0
24/06:00pm 22.9 19.4 8.6 40 7.6 NW 17 28 9 15 1011.5 1011.5 0.0
24/05:30pm 22.3 17.8 8.4 41 7.3 WNW 22 33 12 18 1011.5 1011.5 0.0
24/05:00pm 23.3 19.3 9.0 40 7.7 W 20 33 11 18 1011.4 1011.4 0.0
24/04:30pm 22.4 16.7 8.5 41 7.4 W 28 50 15 27 1011.7 1011.6 0.0
24/04:26pm 23.0 17.8 9.0 41 7.5 WNW 26 50 14 27 1011.5 1011.5 0.0
24/04:00pm 22.2 17.4 8.7 42 7.2 W 24 33 13 18 1012.0 1011.9 0.0
24/03:30pm 22.9 17.6 8.6 40 7.6 W 26 33 14 18 1012.0 1011.9 0.0
24/03:00pm 22.0 17.6 8.9 43 7.0 W 22 32 12 17 1012.1 1012.0 0.0
24/02:30pm 21.8 17.3 8.7 43 6.9 W 22 35 12 19 1012.4 1012.3 0.0
24/02:00pm 21.1 16.1 8.0 43 6.8 W 24 35 13 19 1012.4 1012.3 0.0
24/01:30pm 20.5 16.2 7.8 44 6.6 W 20 28 11 15 1012.4 1012.3 0.0
24/01:00pm 20.5 16.0 8.5 46 6.3 WNW 22 32 12 17 1012.4 1012.3 0.0
24/12:30pm 20.8 16.2 8.1 44 6.6 W 22 33 12 18 1012.4 1012.3 0.0
24/12:00pm 20.4 16.3 8.7 47 6.1 W 20 32 11 17 1012.5 1012.4 0.0
24/11:30am 19.8 16.0 7.5 45 6.3 W 17 26 9 14 1012.3 1012.2 0.0
24/11:00am 19.7 14.1 7.1 44 6.4 W 26 41 14 22 1012.2 1012.1 0.0
24/10:30am 18.8 13.7 7.6 48 5.7 W 24 33 13 18 1012.0 1011.9 0.0
24/10:00am 18.7 13.9 8.9 53 5.1 W 24 35 13 19 1011.5 1011.5 0.0
24/09:30am 17.4 12.9 8.5 56 4.6 NW 22 32 12 17 1011.1 1011.1 0.0
24/09:00am 15.8 11.4 7.6 58 4.1 NW 20 30 11 16 1011.1 1011.1 1.0
24/08:30am 15.0 11.1 7.3 60 3.8 NNW 17 24 9 13 1010.7 1010.7 1.0
24/08:00am 14.1 10.6 7.4 64 3.3 NNW 15 19 8 10 1010.4 1010.4 1.0
24/07:30am 12.4 9.3 7.1 70 2.6 NNW 13 17 7 9 1010.1 1010.1 1.0
24/07:00am 10.9 8.4 6.6 75 2.0 NNW 9 11 5 6 1009.7 1009.7 1.0
24/06:30am 10.9 8.3 6.1 72 2.2 N 9 13 5 7 1009.1 1009.1 1.0
24/06:00am 10.9 8.7 6.3 73 2.2 NNW 7 9 4 5 1008.7 1008.7 1.0
24/05:30am 11.4 8.1 6.5 72 2.3 NNW 13 19 7 10 1008.3 1008.3 1.0
24/05:00am 10.8 8.3 6.6 75 2.0 NNW 9 13 5 7 1008.1 1008.1 1.0
24/04:30am 10.8 8.3 6.6 75 2.0 NW 9 11 5 6 1008.0 1008.0 1.0
24/04:00am 11.4 8.8 6.3 71 2.4 N 9 13 5 7 1007.9 1007.9 1.0
24/03:30am 11.5 8.9 6.2 70 2.5 NNW 9 11 5 6 1007.7 1007.7 1.0
24/03:00am 11.8 8.9 6.3 69 2.6 NNW 11 13 6 7 1007.6 1007.6 1.0
24/02:30am 11.7 8.3 6.0 68 2.7 NNW 13 19 7 10 1007.6 1007.6 1.0
24/02:00am 12.4 9.6 5.3 62 3.3 N 9 13 5 7 1007.8 1007.8 1.0
24/01:30am 11.9 9.6 5.5 65 3.0 WNW 7 9 4 5 1007.8 1007.8 1.0
24/01:00am 12.1 8.8 6.2 67 2.8 WNW 13 15 7 8 1007.6 1007.6 1.0
24/12:30am 12.6 9.3 6.4 66 2.9 WNW 13 17 7 9 1007.7 1007.7 1.0
24/12:00am 14.3 10.6 6.2 58 3.9 W 15 20 8 11 1007.4 1007.4 1.0
 
Date/Time
EDT
Temp
°C
App
Temp
°C
Dew
Point
°C
Rel
Hum
%
Delta-T
°C
Wind Press
QNH
hPa
Press
MSL
hPa
Rain since
9am
mm
Dir  Spd
km/h
Gust
km/h
Spd
kts
Gust
kts
23/11:30pm 14.8 10.7 6.4 57 4.1 WSW 17 20 9 11 1007.3 1007.3 1.0
23/11:00pm 15.5 10.7 5.7 52 4.7 WSW 20 28 11 15 1007.0 1007.0 1.0
23/10:30pm 15.0 11.7 6.6 57 4.1 W 13 17 7 9 1006.5 1006.5 1.0
23/10:00pm 15.7 12.1 6.7 55 4.4 WSW 15 22 8 12 1005.9 1005.9 1.0
23/09:30pm 16.8 11.6 5.4 47 5.5 WSW 22 30 12 16 1005.4 1005.4 1.0
23/09:00pm 17.2 12.4 5.5 46 5.7 WSW 20 28 11 15 1004.9 1004.9 1.0
23/08:30pm 17.6 12.8 5.5 45 5.9 WSW 20 35 11 19 1004.2 1004.2 1.0
23/08:00pm 18.2 12.0 6.1 45 6.0 SW 28 39 15 21 1003.5 1003.5 1.0
23/07:33pm 19.4 12.9 6.5 43 6.5 WSW 30 48 16 26 1002.8 1002.8 1.0
23/07:30pm 19.6 12.4 4.9 38 7.1 WSW 32 48 17 26 1002.7 1002.7 1.0
23/07:00pm 20.4 12.6 4.8 36 7.6 W 35 54 19 29 1001.9 1001.9 1.0
23/06:52pm 20.0 12.1 4.5 36 7.5 W 35 54 19 29 1001.6 1001.6 1.0
23/06:30pm 20.6 12.7 4.2 34 7.9 WSW 35 50 19 27 1001.3 1001.3 1.0
23/06:03pm 21.4 13.9 6.1 37 7.7 W 35 52 19 28 1000.8 1000.8 1.0
23/06:00pm 21.5 14.0 6.2 37 7.8 W 35 48 19 26 1000.6 1000.6 1.0
23/05:37pm 21.1 15.1 7.0 40 7.2 WSW 28 46 15 25 1000.2 1000.2 1.0
23/05:30pm 20.2 14.4 7.9 45 6.4 WSW 28 43 15 23 1000.2 1000.2 1.0
23/05:15pm 20.7 14.6 6.6 40 7.1 W 28 46 15 25 999.8 999.8 1.0
23/05:00pm 21.0 14.2 7.6 42 7.0 W 33 46 18 25 999.6 999.6 1.0
23/04:30pm 21.3 14.9 8.6 44 6.7 WSW 32 50 17 27 999.1 999.1 1.0
23/04:24pm 21.2 14.7 8.1 43 6.8 WSW 32 50 17 27 999.1 999.1 1.0
23/04:11pm 21.3 13.3 8.9 45 6.6 W 41 57 22 31 998.9 998.9 1.0
23/04:07pm 21.6 13.3 5.9 36 7.9 WNW 39 57 21 31 998.6 998.6 1.0
23/04:00pm 21.4 13.9 9.3 46 6.5 WNW 39 54 21 29 998.6 998.6 1.0
23/03:34pm 22.2 14.2 9.0 43 7.0 WNW 41 59 22 32 998.4 998.4 0.8
23/03:30pm 21.8 13.5 9.3 45 6.7 NW 43 56 23 30 998.5 998.5 0.8
23/03:12pm 20.2 13.6 10.0 52 5.5 WNW 35 48 19 26 998.4 998.4 0.8
23/03:00pm 20.3 14.2 9.8 51 5.7 W 32 44 17 24 998.5 998.5 0.8
23/02:30pm 20.0 13.4 9.9 52 5.4 W 35 54 19 29 998.2 998.2 0.8
23/02:21pm 19.6 13.3 9.8 53 5.2 W 33 54 18 29 998.1 998.1 0.8
23/02:00pm 19.2 15.0 12.5 65 3.8 WNW 26 41 14 22 998.0 998.0 0.8
23/01:33pm 18.7 12.5 12.7 68 3.4 NW 37 50 20 27 997.7 997.7 0.8
23/01:30pm 18.5 13.0 12.5 68 3.3 NW 33 50 18 27 997.6 997.6 0.8
23/01:16pm 16.6 9.1 12.8 78 2.1 WNW 44 69 24 37 997.9 997.9 0.8
23/01:11pm 19.0 10.9 10.8 59 4.4 WNW 44 69 24 37 997.4 997.4 0.4
23/01:00pm 20.0 13.4 11.2 57 4.9 NW 37 54 20 29 997.3 997.3 0.4
23/12:30pm 18.9 12.1 10.7 59 4.4 NW 37 54 20 29 997.0 997.0 0.4
23/12:00pm 20.1 14.0 11.8 59 4.6 NW 35 56 19 30 996.8 996.8 0.4
23/11:57am 19.8 13.8 12.1 61 4.3 NW 35 56 19 30 996.7 996.7 0.4
23/11:30am 18.6 13.8 11.7 64 3.8 NNW 28 41 15 22 996.8 996.8 0.4
23/11:00am 18.1 14.3 12.5 70 3.1 N 24 35 13 19 996.8 996.8 0.4
23/10:30am 16.9 14.4 13.4 80 2.0 N 19 30 10 16 996.8 996.8 0.4
23/10:00am 15.3 13.7 14.0 92 0.7 N 15 28 8 15 997.3 997.3 0.4
23/09:30am 14.5 14.5 14.3 99 0.1 N 7 13 4 7 997.4 997.4 0.4
23/09:00am 14.4 14.6 14.2 99 0.1 W 6 7 3 4 997.1 997.1 31.2
23/08:34am 14.3 14.8 14.1 99 0.1 NW 4 11 2 6 996.6 996.6 30.2
23/08:30am 14.3 14.8 14.1 99 0.1 NNW 4 7 2 4 996.7 996.7 30.0
23/08:00am 14.3 13.2 14.3 100 0.0 NW 13 19 7 10 996.6 996.6 29.6
23/07:30am 14.0 13.6 14.0 100 0.0 NNW 9 13 5 7 996.5 996.5 29.4
23/07:00am 13.6 12.3 13.6 100 0.0 N 13 17 7 9 996.0 996.0 28.8
23/06:30am 13.2 11.4 13.2 100 0.0 NNE 15 20 8 11 996.0 996.0 27.8
23/06:00am 12.8 11.2 12.8 100 0.0 NNE 13 20 7 11 996.1 996.1 27.0
23/05:30am 12.7 12.2 12.7 100 0.0 NE 7 13 4 7 996.4 996.4 25.4
23/05:00am 12.4 12.0 12.4 100 0.0 NE 6 9 3 5 997.2 997.2 24.0
23/04:30am 12.3 13.0 12.3 100 0.0 CALM 0 4 0 2 997.6 997.6 22.6
23/04:00am 12.3 11.2 12.1 99 0.1 W 9 13 5 7 997.6 997.6 21.0
23/03:30am 12.4 11.4 12.4 100 0.0 WSW 9 13 5 7 997.8 997.8 19.4
23/03:00am 12.5 11.6 12.5 100 0.0 W 9 17 5 9 997.8 997.8 17.8
23/02:38am 12.6 11.7 12.6 100 0.0 WSW 9 15 5 8 999.2 999.2 17.0
23/02:30am 12.4 11.4 12.4 100 0.0 SW 9 15 5 8 998.2 998.2 16.8
23/02:04am 12.3 11.3 12.3 100 0.0 SSW 9 13 5 7 998.9 998.9 16.2
23/02:00am 12.3 10.9 12.3 100 0.0 S 11 17 6 9 998.7 998.7 16.2
23/01:30am 12.4 11.0 12.2 99 0.1 SW 11 17 6 9 999.3 999.3 15.0
23/01:28am 12.4 11.0 12.2 99 0.1 SW 11 17 6 9 999.4 999.4 14.6
23/01:02am 12.5 10.8 12.3 99 0.1 SW 13 17 7 9 999.6 999.6 12.8
23/01:00am 12.4 10.6 12.2 99 0.1 SW 13 20 7 11 999.7 999.7 12.4
23/12:51am 12.4 9.9 12.2 99 0.1 SW 17 24 9 13 999.6 999.6 11.6
23/12:30am 12.9 9.9 12.7 99 0.1 SW 20 30 11 16 1000.2 1000.2 10.2
23/12:07am 14.1 12.1 13.9 99 0.1 S 17 22 9 12 1000.2 1000.2 7.4
23/12:00am 14.4 13.7 14.2 99 0.1 SSW 11 20 6 11 999.7 999.7 6.6
 
Date/Time
EDT
Temp
°C
App
Temp
°C
Dew
Point
°C
Rel
Hum
%
Delta-T
°C
Wind Press
QNH
hPa
Press
MSL
hPa
Rain since
9am
mm
Dir  Spd
km/h
Gust
km/h
Spd
kts
Gust
kts
22/11:30pm 15.2 16.1 15.0 99 0.1 SW 4 6 2 3 1001.2 1001.2 3.6
22/11:00pm 15.4 15.7 14.9 97 0.3 SW 7 15 4 8 1001.1 1001.1 2.2
22/10:36pm 15.6 13.6 15.0 96 0.3 SW 19 24 10 13 1001.2 1001.2 1.2
22/10:30pm 15.6 13.5 14.8 95 0.5 SW 19 26 10 14 1000.8 1000.8 1.2
22/10:04pm 16.6 14.9 15.8 95 0.5 SSW 19 26 10 14 1000.7 1000.7 0.4
22/10:00pm 16.6 14.7 15.8 95 0.5 SSW 20 28 11 15 1000.5 1000.5 0.2

Latest Capital City Observations: Canberra | Sydney | Melbourne | Brisbane | Adelaide | Perth | Hobart | Darwin

Other formats

Comma delimited format used in spreadsheet applications
http://www.bom.gov.au/fwo/IDV60901/IDV60901.94865.axf

JavaScript Object Notation format (JSON) in row-major order
http://www.bom.gov.au/fwo/IDV60901/IDV60901.94865.json

Data quality

Most of these data are generated automatically and are frequently updated. Quality checks on data are not normally performed. It is possible for incorrect values to appear. Refer to information at About Latest Weather Observations and please check the disclaimer before using these data.